sensor_id;sensor_type;location;lat;lon;timestamp;P1;durP1;ratioP1;P2;durP2;ratioP2
18649;SDS011;9454;53.516;10.478;2023-09-07T00:00:52;4.15;;;1.70;;
18649;SDS011;9454;53.516;10.478;2023-09-07T00:03:55;2.97;;;1.88;;
18649;SDS011;9454;53.516;10.478;2023-09-07T00:06:59;3.05;;;1.95;;
18649;SDS011;9454;53.516;10.478;2023-09-07T00:10:03;2.88;;;2.20;;
18649;SDS011;9454;53.516;10.478;2023-09-07T00:13:08;2.63;;;2.00;;
18649;SDS011;9454;53.516;10.478;2023-09-07T00:16:11;4.22;;;2.28;;
18649;SDS011;9454;53.516;10.478;2023-09-07T00:19:15;2.92;;;2.10;;
18649;SDS011;9454;53.516;10.478;2023-09-07T00:22:18;7.63;;;2.38;;
18649;SDS011;9454;53.516;10.478;2023-09-07T00:25:21;2.90;;;1.77;;
18649;SDS011;9454;53.516;10.478;2023-09-07T00:28:26;2.38;;;1.80;;
18649;SDS011;9454;53.516;10.478;2023-09-07T00:31:30;3.83;;;2.13;;
18649;SDS011;9454;53.516;10.478;2023-09-07T00:34:36;4.10;;;1.98;;
18649;SDS011;9454;53.516;10.478;2023-09-07T00:37:40;4.20;;;1.92;;
18649;SDS011;9454;53.516;10.478;2023-09-07T00:40:44;4.38;;;1.75;;
18649;SDS011;9454;53.516;10.478;2023-09-07T00:43:48;2.83;;;1.90;;
18649;SDS011;9454;53.516;10.478;2023-09-07T00:46:52;2.50;;;1.92;;
18649;SDS011;9454;53.516;10.478;2023-09-07T00:49:56;3.25;;;2.03;;
18649;SDS011;9454;53.516;10.478;2023-09-07T00:53:01;2.75;;;2.10;;
18649;SDS011;9454;53.516;10.478;2023-09-07T00:56:07;4.60;;;2.10;;
18649;SDS011;9454;53.516;10.478;2023-09-07T00:59:13;3.47;;;1.95;;
18649;SDS011;9454;53.516;10.478;2023-09-07T01:02:16;3.22;;;2.25;;
18649;SDS011;9454;53.516;10.478;2023-09-07T01:05:20;2.80;;;2.00;;
18649;SDS011;9454;53.516;10.478;2023-09-07T01:08:28;7.28;;;2.08;;
18649;SDS011;9454;53.516;10.478;2023-09-07T01:11:35;4.47;;;2.22;;
18649;SDS011;9454;53.516;10.478;2023-09-07T01:14:40;2.33;;;1.85;;
18649;SDS011;9454;53.516;10.478;2023-09-07T01:17:45;3.22;;;2.10;;
18649;SDS011;9454;53.516;10.478;2023-09-07T01:20:49;3.05;;;2.10;;
18649;SDS011;9454;53.516;10.478;2023-09-07T01:23:53;2.22;;;1.80;;
18649;SDS011;9454;53.516;10.478;2023-09-07T01:26:58;5.82;;;2.45;;
18649;SDS011;9454;53.516;10.478;2023-09-07T01:30:02;3.47;;;2.10;;
18649;SDS011;9454;53.516;10.478;2023-09-07T01:33:05;2.40;;;2.13;;
18649;SDS011;9454;53.516;10.478;2023-09-07T01:36:10;3.22;;;2.20;;
18649;SDS011;9454;53.516;10.478;2023-09-07T01:39:15;6.38;;;2.53;;
18649;SDS011;9454;53.516;10.478;2023-09-07T01:42:23;2.63;;;2.15;;
18649;SDS011;9454;53.516;10.478;2023-09-07T01:45:26;2.60;;;2.38;;
18649;SDS011;9454;53.516;10.478;2023-09-07T01:48:30;2.25;;;1.83;;
18649;SDS011;9454;53.516;10.478;2023-09-07T01:51:34;3.45;;;2.08;;
18649;SDS011;9454;53.516;10.478;2023-09-07T01:54:39;5.57;;;2.45;;
18649;SDS011;9454;53.516;10.478;2023-09-07T01:57:43;4.03;;;2.15;;
18649;SDS011;9454;53.516;10.478;2023-09-07T02:00:46;1.98;;;1.77;;
18649;SDS011;9454;53.516;10.478;2023-09-07T02:03:50;3.65;;;2.40;;
18649;SDS011;9454;53.516;10.478;2023-09-07T02:06:56;4.53;;;2.30;;
18649;SDS011;9454;53.516;10.478;2023-09-07T02:10:01;4.03;;;2.38;;
18649;SDS011;9454;53.516;10.478;2023-09-07T02:13:05;7.50;;;2.30;;
18649;SDS011;9454;53.516;10.478;2023-09-07T02:16:08;3.42;;;2.00;;
18649;SDS011;9454;53.516;10.478;2023-09-07T02:19:12;6.18;;;1.88;;
18649;SDS011;9454;53.516;10.478;2023-09-07T02:22:17;6.00;;;2.55;;
18649;SDS011;9454;53.516;10.478;2023-09-07T02:25:22;4.95;;;2.53;;
18649;SDS011;9454;53.516;10.478;2023-09-07T02:28:25;2.85;;;2.50;;
18649;SDS011;9454;53.516;10.478;2023-09-07T02:31:29;2.47;;;2.28;;
18649;SDS011;9454;53.516;10.478;2023-09-07T02:34:33;4.03;;;2.83;;
18649;SDS011;9454;53.516;10.478;2023-09-07T02:37:38;4.63;;;2.47;;
18649;SDS011;9454;53.516;10.478;2023-09-07T02:40:43;4.70;;;2.80;;
18649;SDS011;9454;53.516;10.478;2023-09-07T02:43:48;7.20;;;2.40;;
18649;SDS011;9454;53.516;10.478;2023-09-07T02:46:51;4.50;;;2.33;;
18649;SDS011;9454;53.516;10.478;2023-09-07T02:49:54;5.40;;;2.55;;
18649;SDS011;9454;53.516;10.478;2023-09-07T02:52:58;5.97;;;2.20;;
18649;SDS011;9454;53.516;10.478;2023-09-07T02:56:04;3.33;;;2.08;;
18649;SDS011;9454;53.516;10.478;2023-09-07T02:59:09;4.35;;;2.30;;
18649;SDS011;9454;53.516;10.478;2023-09-07T03:02:13;3.45;;;2.33;;
18649;SDS011;9454;53.516;10.478;2023-09-07T03:05:16;2.85;;;2.35;;
18649;SDS011;9454;53.516;10.478;2023-09-07T03:08:20;3.58;;;2.15;;
18649;SDS011;9454;53.516;10.478;2023-09-07T03:11:27;3.28;;;2.42;;
18649;SDS011;9454;53.516;10.478;2023-09-07T03:14:35;3.63;;;2.28;;
18649;SDS011;9454;53.516;10.478;2023-09-07T03:17:39;3.08;;;2.15;;
18649;SDS011;9454;53.516;10.478;2023-09-07T03:20:43;3.47;;;2.53;;
18649;SDS011;9454;53.516;10.478;2023-09-07T03:23:47;4.82;;;2.58;;
18649;SDS011;9454;53.516;10.478;2023-09-07T03:26:51;6.43;;;2.35;;
18649;SDS011;9454;53.516;10.478;2023-09-07T03:29:55;2.83;;;2.17;;
18649;SDS011;9454;53.516;10.478;2023-09-07T03:32:59;3.40;;;2.28;;
18649;SDS011;9454;53.516;10.478;2023-09-07T03:36:03;3.63;;;2.63;;
18649;SDS011;9454;53.516;10.478;2023-09-07T03:39:07;3.53;;;2.08;;
18649;SDS011;9454;53.516;10.478;2023-09-07T03:42:13;4.20;;;2.30;;
18649;SDS011;9454;53.516;10.478;2023-09-07T03:45:16;5.38;;;2.55;;
18649;SDS011;9454;53.516;10.478;2023-09-07T03:48:20;3.38;;;2.35;;
18649;SDS011;9454;53.516;10.478;2023-09-07T03:51:23;4.95;;;2.50;;
18649;SDS011;9454;53.516;10.478;2023-09-07T03:54:26;5.45;;;2.55;;
18649;SDS011;9454;53.516;10.478;2023-09-07T03:57:31;3.25;;;2.30;;
18649;SDS011;9454;53.516;10.478;2023-09-07T04:00:37;4.57;;;2.47;;
18649;SDS011;9454;53.516;10.478;2023-09-07T04:03:41;3.58;;;2.30;;
18649;SDS011;9454;53.516;10.478;2023-09-07T04:06:46;9.13;;;2.45;;
18649;SDS011;9454;53.516;10.478;2023-09-07T04:09:50;5.93;;;2.08;;
18649;SDS011;9454;53.516;10.478;2023-09-07T04:12:54;3.70;;;2.15;;
18649;SDS011;9454;53.516;10.478;2023-09-07T04:15:58;2.38;;;2.15;;
18649;SDS011;9454;53.516;10.478;2023-09-07T04:19:01;2.90;;;2.25;;
18649;SDS011;9454;53.516;10.478;2023-09-07T04:22:05;4.68;;;2.47;;
18649;SDS011;9454;53.516;10.478;2023-09-07T04:25:08;3.35;;;2.35;;
18649;SDS011;9454;53.516;10.478;2023-09-07T04:28:14;3.17;;;2.00;;
18649;SDS011;9454;53.516;10.478;2023-09-07T04:31:17;4.32;;;2.63;;
18649;SDS011;9454;53.516;10.478;2023-09-07T04:34:22;3.78;;;2.72;;
18649;SDS011;9454;53.516;10.478;2023-09-07T04:37:27;3.00;;;2.28;;
18649;SDS011;9454;53.516;10.478;2023-09-07T04:40:31;6.13;;;2.70;;
18649;SDS011;9454;53.516;10.478;2023-09-07T04:43:36;5.57;;;3.05;;
18649;SDS011;9454;53.516;10.478;2023-09-07T04:46:41;4.95;;;3.05;;
18649;SDS011;9454;53.516;10.478;2023-09-07T04:49:48;5.60;;;3.03;;
18649;SDS011;9454;53.516;10.478;2023-09-07T04:52:54;7.35;;;2.97;;
18649;SDS011;9454;53.516;10.478;2023-09-07T04:55:57;7.13;;;3.38;;
18649;SDS011;9454;53.516;10.478;2023-09-07T04:59:02;9.82;;;3.05;;
18649;SDS011;9454;53.516;10.478;2023-09-07T05:02:05;5.93;;;3.05;;
18649;SDS011;9454;53.516;10.478;2023-09-07T05:05:09;4.18;;;3.13;;
18649;SDS011;9454;53.516;10.478;2023-09-07T05:08:13;6.10;;;3.05;;
18649;SDS011;9454;53.516;10.478;2023-09-07T05:11:17;4.70;;;3.05;;
18649;SDS011;9454;53.516;10.478;2023-09-07T05:14:21;5.70;;;3.47;;
18649;SDS011;9454;53.516;10.478;2023-09-07T05:17:25;4.43;;;3.03;;
18649;SDS011;9454;53.516;10.478;2023-09-07T05:20:29;5.03;;;3.08;;
18649;SDS011;9454;53.516;10.478;2023-09-07T05:23:33;6.30;;;3.13;;
18649;SDS011;9454;53.516;10.478;2023-09-07T05:26:36;5.20;;;2.88;;
18649;SDS011;9454;53.516;10.478;2023-09-07T05:29:42;8.48;;;3.28;;
18649;SDS011;9454;53.516;10.478;2023-09-07T05:32:46;4.50;;;2.67;;
18649;SDS011;9454;53.516;10.478;2023-09-07T05:35:49;4.10;;;2.85;;
18649;SDS011;9454;53.516;10.478;2023-09-07T05:38:53;5.30;;;3.63;;
18649;SDS011;9454;53.516;10.478;2023-09-07T05:41:57;4.82;;;3.28;;
18649;SDS011;9454;53.516;10.478;2023-09-07T05:45:02;5.45;;;3.50;;
18649;SDS011;9454;53.516;10.478;2023-09-07T05:48:06;5.05;;;3.30;;
18649;SDS011;9454;53.516;10.478;2023-09-07T05:51:11;3.22;;;2.88;;
18649;SDS011;9454;53.516;10.478;2023-09-07T05:54:14;6.00;;;3.30;;
18649;SDS011;9454;53.516;10.478;2023-09-07T05:58:05;7.28;;;3.45;;
18649;SDS011;9454;53.516;10.478;2023-09-07T06:01:08;4.70;;;2.97;;
18649;SDS011;9454;53.516;10.478;2023-09-07T06:04:11;6.20;;;3.55;;
18649;SDS011;9454;53.516;10.478;2023-09-07T06:07:16;6.35;;;3.20;;
18649;SDS011;9454;53.516;10.478;2023-09-07T06:10:19;6.05;;;3.40;;
18649;SDS011;9454;53.516;10.478;2023-09-07T06:13:24;4.88;;;3.83;;
18649;SDS011;9454;53.516;10.478;2023-09-07T06:16:29;10.40;;;3.63;;
18649;SDS011;9454;53.516;10.478;2023-09-07T06:19:37;6.20;;;3.75;;
18649;SDS011;9454;53.516;10.478;2023-09-07T06:22:41;4.45;;;3.20;;
18649;SDS011;9454;53.516;10.478;2023-09-07T06:25:47;5.38;;;3.72;;
18649;SDS011;9454;53.516;10.478;2023-09-07T06:28:54;6.75;;;3.20;;
18649;SDS011;9454;53.516;10.478;2023-09-07T06:32:00;5.03;;;3.60;;
18649;SDS011;9454;53.516;10.478;2023-09-07T06:35:04;5.57;;;3.63;;
18649;SDS011;9454;53.516;10.478;2023-09-07T06:38:08;4.10;;;3.15;;
18649;SDS011;9454;53.516;10.478;2023-09-07T06:41:15;5.43;;;3.25;;
18649;SDS011;9454;53.516;10.478;2023-09-07T06:44:19;7.88;;;3.35;;
18649;SDS011;9454;53.516;10.478;2023-09-07T06:47:25;5.43;;;3.17;;
18649;SDS011;9454;53.516;10.478;2023-09-07T06:50:32;4.40;;;3.20;;
18649;SDS011;9454;53.516;10.478;2023-09-07T06:53:35;5.53;;;3.33;;
18649;SDS011;9454;53.516;10.478;2023-09-07T06:56:57;5.63;;;3.65;;
18649;SDS011;9454;53.516;10.478;2023-09-07T07:00:02;6.10;;;3.40;;
18649;SDS011;9454;53.516;10.478;2023-09-07T07:03:08;7.25;;;3.58;;
18649;SDS011;9454;53.516;10.478;2023-09-07T07:06:13;4.53;;;3.17;;
18649;SDS011;9454;53.516;10.478;2023-09-07T07:09:17;5.15;;;3.28;;
18649;SDS011;9454;53.516;10.478;2023-09-07T07:12:21;5.57;;;3.10;;
18649;SDS011;9454;53.516;10.478;2023-09-07T07:15:24;5.38;;;3.33;;
18649;SDS011;9454;53.516;10.478;2023-09-07T07:18:31;4.72;;;3.33;;
18649;SDS011;9454;53.516;10.478;2023-09-07T07:21:36;5.05;;;3.45;;
18649;SDS011;9454;53.516;10.478;2023-09-07T07:24:43;7.10;;;3.40;;
18649;SDS011;9454;53.516;10.478;2023-09-07T07:27:47;6.07;;;3.33;;
18649;SDS011;9454;53.516;10.478;2023-09-07T07:30:50;4.40;;;3.15;;
18649;SDS011;9454;53.516;10.478;2023-09-07T07:33:57;4.28;;;3.05;;
18649;SDS011;9454;53.516;10.478;2023-09-07T07:37:01;5.38;;;3.38;;
18649;SDS011;9454;53.516;10.478;2023-09-07T07:40:06;3.83;;;3.13;;
18649;SDS011;9454;53.516;10.478;2023-09-07T07:43:10;5.55;;;3.42;;
18649;SDS011;9454;53.516;10.478;2023-09-07T07:46:15;6.85;;;3.05;;
18649;SDS011;9454;53.516;10.478;2023-09-07T07:49:23;7.07;;;3.83;;
18649;SDS011;9454;53.516;10.478;2023-09-07T07:52:27;3.47;;;2.75;;
18649;SDS011;9454;53.516;10.478;2023-09-07T07:55:31;4.25;;;2.75;;
18649;SDS011;9454;53.516;10.478;2023-09-07T07:58:41;4.90;;;3.20;;
18649;SDS011;9454;53.516;10.478;2023-09-07T08:01:46;5.28;;;3.17;;
18649;SDS011;9454;53.516;10.478;2023-09-07T08:04:52;5.70;;;2.80;;
18649;SDS011;9454;53.516;10.478;2023-09-07T08:07:56;3.67;;;2.88;;
18649;SDS011;9454;53.516;10.478;2023-09-07T08:10:59;10.07;;;2.90;;
18649;SDS011;9454;53.516;10.478;2023-09-07T08:14:09;5.10;;;2.80;;
18649;SDS011;9454;53.516;10.478;2023-09-07T08:17:13;6.15;;;3.10;;
18649;SDS011;9454;53.516;10.478;2023-09-07T08:20:19;3.95;;;2.58;;
18649;SDS011;9454;53.516;10.478;2023-09-07T08:23:22;6.93;;;2.80;;
18649;SDS011;9454;53.516;10.478;2023-09-07T08:26:26;5.03;;;3.03;;
18649;SDS011;9454;53.516;10.478;2023-09-07T08:29:29;6.55;;;2.78;;
18649;SDS011;9454;53.516;10.478;2023-09-07T08:32:34;4.72;;;2.70;;
18649;SDS011;9454;53.516;10.478;2023-09-07T08:35:39;4.07;;;2.60;;
18649;SDS011;9454;53.516;10.478;2023-09-07T08:38:46;5.35;;;2.60;;
18649;SDS011;9454;53.516;10.478;2023-09-07T08:41:49;4.50;;;2.45;;
18649;SDS011;9454;53.516;10.478;2023-09-07T08:45:02;6.70;;;2.92;;
18649;SDS011;9454;53.516;10.478;2023-09-07T08:48:08;3.58;;;2.42;;
18649;SDS011;9454;53.516;10.478;2023-09-07T08:51:15;5.13;;;2.63;;
18649;SDS011;9454;53.516;10.478;2023-09-07T08:54:19;3.65;;;2.53;;
18649;SDS011;9454;53.516;10.478;2023-09-07T08:57:23;4.18;;;2.63;;
18649;SDS011;9454;53.516;10.478;2023-09-07T09:00:28;4.85;;;2.67;;
18649;SDS011;9454;53.516;10.478;2023-09-07T09:03:32;3.35;;;2.50;;
18649;SDS011;9454;53.516;10.478;2023-09-07T09:06:37;4.55;;;2.45;;
18649;SDS011;9454;53.516;10.478;2023-09-07T09:09:41;4.30;;;2.58;;
18649;SDS011;9454;53.516;10.478;2023-09-07T09:12:46;5.68;;;2.60;;
18649;SDS011;9454;53.516;10.478;2023-09-07T09:15:50;4.22;;;3.03;;
18649;SDS011;9454;53.516;10.478;2023-09-07T09:18:54;4.28;;;2.78;;
18649;SDS011;9454;53.516;10.478;2023-09-07T09:21:59;4.97;;;2.90;;
18649;SDS011;9454;53.516;10.478;2023-09-07T09:25:05;4.20;;;2.70;;
18649;SDS011;9454;53.516;10.478;2023-09-07T09:28:08;3.65;;;3.08;;
18649;SDS011;9454;53.516;10.478;2023-09-07T09:31:13;3.50;;;2.75;;
18649;SDS011;9454;53.516;10.478;2023-09-07T09:34:17;4.28;;;2.60;;
18649;SDS011;9454;53.516;10.478;2023-09-07T09:37:23;4.95;;;2.78;;
18649;SDS011;9454;53.516;10.478;2023-09-07T09:40:27;6.43;;;3.00;;
18649;SDS011;9454;53.516;10.478;2023-09-07T09:43:31;3.20;;;2.72;;
18649;SDS011;9454;53.516;10.478;2023-09-07T09:46:35;4.65;;;2.72;;
18649;SDS011;9454;53.516;10.478;2023-09-07T09:49:40;3.92;;;2.53;;
18649;SDS011;9454;53.516;10.478;2023-09-07T09:52:46;5.63;;;2.60;;
18649;SDS011;9454;53.516;10.478;2023-09-07T09:55:51;6.13;;;2.90;;
18649;SDS011;9454;53.516;10.478;2023-09-07T09:58:55;9.30;;;2.80;;
18649;SDS011;9454;53.516;10.478;2023-09-07T10:01:59;4.32;;;2.20;;
18649;SDS011;9454;53.516;10.478;2023-09-07T10:05:04;4.78;;;2.55;;
18649;SDS011;9454;53.516;10.478;2023-09-07T10:08:12;4.25;;;2.47;;
18649;SDS011;9454;53.516;10.478;2023-09-07T10:11:25;5.05;;;2.67;;
18649;SDS011;9454;53.516;10.478;2023-09-07T10:14:37;3.47;;;2.17;;
18649;SDS011;9454;53.516;10.478;2023-09-07T10:17:41;4.63;;;2.17;;
18649;SDS011;9454;53.516;10.478;2023-09-07T10:24:28;5.88;;;2.70;;
18649;SDS011;9454;53.516;10.478;2023-09-07T10:27:36;4.45;;;2.40;;
18649;SDS011;9454;53.516;10.478;2023-09-07T10:30:40;6.85;;;2.88;;
18649;SDS011;9454;53.516;10.478;2023-09-07T10:33:44;9.20;;;2.17;;
18649;SDS011;9454;53.516;10.478;2023-09-07T10:36:48;7.68;;;2.60;;
18649;SDS011;9454;53.516;10.478;2023-09-07T10:40:00;5.20;;;2.40;;
18649;SDS011;9454;53.516;10.478;2023-09-07T10:43:04;3.28;;;2.20;;
18649;SDS011;9454;53.516;10.478;2023-09-07T10:46:09;3.10;;;2.25;;
18649;SDS011;9454;53.516;10.478;2023-09-07T10:49:13;5.40;;;2.15;;
18649;SDS011;9454;53.516;10.478;2023-09-07T10:52:21;4.15;;;2.50;;
18649;SDS011;9454;53.516;10.478;2023-09-07T10:55:26;3.90;;;2.47;;
18649;SDS011;9454;53.516;10.478;2023-09-07T10:58:30;4.05;;;2.50;;
18649;SDS011;9454;53.516;10.478;2023-09-07T11:01:34;7.95;;;2.45;;
18649;SDS011;9454;53.516;10.478;2023-09-07T11:04:37;3.40;;;2.15;;
18649;SDS011;9454;53.516;10.478;2023-09-07T11:07:41;4.85;;;2.50;;
18649;SDS011;9454;53.516;10.478;2023-09-07T11:10:46;5.78;;;2.90;;
18649;SDS011;9454;53.516;10.478;2023-09-07T11:13:49;3.33;;;2.58;;
18649;SDS011;9454;53.516;10.478;2023-09-07T11:16:55;7.53;;;2.85;;
18649;SDS011;9454;53.516;10.478;2023-09-07T11:23:56;10.40;;;2.65;;
18649;SDS011;9454;53.516;10.478;2023-09-07T11:27:01;3.25;;;2.67;;
18649;SDS011;9454;53.516;10.478;2023-09-07T11:30:06;5.03;;;2.50;;
18649;SDS011;9454;53.516;10.478;2023-09-07T11:33:15;6.13;;;3.13;;
18649;SDS011;9454;53.516;10.478;2023-09-07T11:36:36;3.58;;;2.38;;
18649;SDS011;9454;53.516;10.478;2023-09-07T11:40:27;3.75;;;2.25;;
18649;SDS011;9454;53.516;10.478;2023-09-07T11:44:42;4.03;;;2.53;;
18649;SDS011;9454;53.516;10.478;2023-09-07T11:47:46;4.50;;;2.35;;
18649;SDS011;9454;53.516;10.478;2023-09-07T11:50:59;7.07;;;2.13;;
18649;SDS011;9454;53.516;10.478;2023-09-07T11:54:18;2.92;;;2.15;;
18649;SDS011;9454;53.516;10.478;2023-09-07T11:57:22;3.75;;;2.22;;
18649;SDS011;9454;53.516;10.478;2023-09-07T12:00:34;4.28;;;2.83;;
18649;SDS011;9454;53.516;10.478;2023-09-07T12:03:41;5.50;;;2.08;;
18649;SDS011;9454;53.516;10.478;2023-09-07T12:06:57;4.50;;;2.60;;
18649;SDS011;9454;53.516;10.478;2023-09-07T12:10:38;7.75;;;2.42;;
18649;SDS011;9454;53.516;10.478;2023-09-07T12:13:41;7.38;;;2.90;;
18649;SDS011;9454;53.516;10.478;2023-09-07T12:16:47;4.72;;;2.78;;
18649;SDS011;9454;53.516;10.478;2023-09-07T12:19:57;5.55;;;4.13;;
18649;SDS011;9454;53.516;10.478;2023-09-07T12:23:15;7.75;;;3.05;;
18649;SDS011;9454;53.516;10.478;2023-09-07T12:26:30;3.63;;;2.40;;
18649;SDS011;9454;53.516;10.478;2023-09-07T12:29:46;4.80;;;2.65;;
18649;SDS011;9454;53.516;10.478;2023-09-07T12:33:02;2.95;;;2.33;;
18649;SDS011;9454;53.516;10.478;2023-09-07T12:36:12;4.95;;;2.15;;
18649;SDS011;9454;53.516;10.478;2023-09-07T12:39:20;4.45;;;2.78;;
18649;SDS011;9454;53.516;10.478;2023-09-07T12:42:34;4.50;;;2.53;;
18649;SDS011;9454;53.516;10.478;2023-09-07T12:45:38;3.97;;;2.60;;
18649;SDS011;9454;53.516;10.478;2023-09-07T12:48:45;3.95;;;2.60;;
18649;SDS011;9454;53.516;10.478;2023-09-07T12:55:24;3.47;;;2.10;;
18649;SDS011;9454;53.516;10.478;2023-09-07T12:58:37;4.07;;;2.33;;
18649;SDS011;9454;53.516;10.478;2023-09-07T13:01:50;3.50;;;2.40;;
18649;SDS011;9454;53.516;10.478;2023-09-07T13:05:21;10.95;;;2.30;;
18649;SDS011;9454;53.516;10.478;2023-09-07T13:08:32;2.97;;;2.08;;
18649;SDS011;9454;53.516;10.478;2023-09-07T13:11:38;4.15;;;2.17;;
18649;SDS011;9454;53.516;10.478;2023-09-07T13:14:48;5.45;;;2.42;;
18649;SDS011;9454;53.516;10.478;2023-09-07T13:18:02;3.55;;;1.92;;
18649;SDS011;9454;53.516;10.478;2023-09-07T13:21:09;5.50;;;2.40;;
18649;SDS011;9454;53.516;10.478;2023-09-07T13:24:17;2.72;;;2.35;;
18649;SDS011;9454;53.516;10.478;2023-09-07T13:27:21;4.53;;;2.20;;
18649;SDS011;9454;53.516;10.478;2023-09-07T13:30:31;4.10;;;2.20;;
18649;SDS011;9454;53.516;10.478;2023-09-07T13:33:39;4.68;;;2.38;;
18649;SDS011;9454;53.516;10.478;2023-09-07T13:36:48;3.35;;;2.13;;
18649;SDS011;9454;53.516;10.478;2023-09-07T13:40:01;4.15;;;2.03;;
18649;SDS011;9454;53.516;10.478;2023-09-07T13:43:09;4.20;;;2.40;;
18649;SDS011;9454;53.516;10.478;2023-09-07T13:46:14;4.93;;;2.35;;
18649;SDS011;9454;53.516;10.478;2023-09-07T13:49:19;3.47;;;2.28;;
18649;SDS011;9454;53.516;10.478;2023-09-07T13:52:24;4.97;;;2.50;;
18649;SDS011;9454;53.516;10.478;2023-09-07T13:55:28;5.18;;;2.78;;
18649;SDS011;9454;53.516;10.478;2023-09-07T13:58:50;5.20;;;2.50;;
18649;SDS011;9454;53.516;10.478;2023-09-07T14:02:00;4.18;;;2.67;;
18649;SDS011;9454;53.516;10.478;2023-09-07T14:05:18;3.10;;;1.92;;
18649;SDS011;9454;53.516;10.478;2023-09-07T14:08:31;10.00;;;2.30;;
18649;SDS011;9454;53.516;10.478;2023-09-07T14:11:50;3.45;;;1.83;;
18649;SDS011;9454;53.516;10.478;2023-09-07T14:15:11;3.35;;;2.38;;
18649;SDS011;9454;53.516;10.478;2023-09-07T14:18:28;5.63;;;2.53;;
18649;SDS011;9454;53.516;10.478;2023-09-07T14:21:34;2.67;;;1.90;;
18649;SDS011;9454;53.516;10.478;2023-09-07T14:24:48;3.63;;;2.00;;
18649;SDS011;9454;53.516;10.478;2023-09-07T14:28:08;1.90;;;1.67;;
18649;SDS011;9454;53.516;10.478;2023-09-07T14:31:21;2.28;;;1.83;;
18649;SDS011;9454;53.516;10.478;2023-09-07T14:37:42;3.40;;;2.00;;
18649;SDS011;9454;53.516;10.478;2023-09-07T14:40:50;3.20;;;2.17;;
18649;SDS011;9454;53.516;10.478;2023-09-07T14:43:56;3.20;;;1.70;;
18649;SDS011;9454;53.516;10.478;2023-09-07T14:46:59;3.72;;;2.47;;
18649;SDS011;9454;53.516;10.478;2023-09-07T14:50:13;3.30;;;2.10;;
18649;SDS011;9454;53.516;10.478;2023-09-07T14:53:39;4.38;;;2.50;;
18649;SDS011;9454;53.516;10.478;2023-09-07T14:57:14;5.05;;;2.63;;
18649;SDS011;9454;53.516;10.478;2023-09-07T15:00:20;3.25;;;1.75;;
18649;SDS011;9454;53.516;10.478;2023-09-07T15:03:27;4.88;;;2.70;;
18649;SDS011;9454;53.516;10.478;2023-09-07T15:06:39;5.25;;;2.38;;
18649;SDS011;9454;53.516;10.478;2023-09-07T15:09:56;3.33;;;1.95;;
18649;SDS011;9454;53.516;10.478;2023-09-07T15:13:30;7.13;;;2.50;;
18649;SDS011;9454;53.516;10.478;2023-09-07T15:16:37;3.60;;;2.10;;
18649;SDS011;9454;53.516;10.478;2023-09-07T15:19:42;5.53;;;2.60;;
18649;SDS011;9454;53.516;10.478;2023-09-07T15:22:49;8.27;;;2.28;;
18649;SDS011;9454;53.516;10.478;2023-09-07T15:26:24;3.40;;;2.17;;
18649;SDS011;9454;53.516;10.478;2023-09-07T15:29:33;4.78;;;2.33;;
18649;SDS011;9454;53.516;10.478;2023-09-07T15:33:01;3.13;;;1.85;;
18649;SDS011;9454;53.516;10.478;2023-09-07T15:36:34;3.40;;;2.35;;
18649;SDS011;9454;53.516;10.478;2023-09-07T15:39:38;3.67;;;2.10;;
18649;SDS011;9454;53.516;10.478;2023-09-07T15:42:45;4.82;;;2.17;;
18649;SDS011;9454;53.516;10.478;2023-09-07T15:45:49;5.82;;;2.50;;
18649;SDS011;9454;53.516;10.478;2023-09-07T15:48:53;3.97;;;2.30;;
18649;SDS011;9454;53.516;10.478;2023-09-07T15:51:58;6.65;;;2.20;;
18649;SDS011;9454;53.516;10.478;2023-09-07T15:55:02;2.88;;;2.00;;
18649;SDS011;9454;53.516;10.478;2023-09-07T15:58:05;3.00;;;2.28;;
18649;SDS011;9454;53.516;10.478;2023-09-07T16:01:10;6.10;;;2.42;;
18649;SDS011;9454;53.516;10.478;2023-09-07T16:04:14;4.15;;;2.25;;
18649;SDS011;9454;53.516;10.478;2023-09-07T16:07:18;4.32;;;2.17;;
18649;SDS011;9454;53.516;10.478;2023-09-07T16:10:21;4.75;;;2.38;;
18649;SDS011;9454;53.516;10.478;2023-09-07T16:13:25;3.67;;;2.13;;
18649;SDS011;9454;53.516;10.478;2023-09-07T16:16:30;6.43;;;1.95;;
18649;SDS011;9454;53.516;10.478;2023-09-07T16:19:35;2.50;;;1.67;;
18649;SDS011;9454;53.516;10.478;2023-09-07T16:22:39;3.38;;;2.10;;
18649;SDS011;9454;53.516;10.478;2023-09-07T16:25:42;4.90;;;2.50;;
18649;SDS011;9454;53.516;10.478;2023-09-07T16:28:46;3.60;;;2.10;;
18649;SDS011;9454;53.516;10.478;2023-09-07T16:31:52;4.65;;;2.05;;
18649;SDS011;9454;53.516;10.478;2023-09-07T16:34:56;4.32;;;2.50;;
18649;SDS011;9454;53.516;10.478;2023-09-07T16:37:59;6.18;;;2.25;;
18649;SDS011;9454;53.516;10.478;2023-09-07T16:41:03;7.97;;;2.20;;
18649;SDS011;9454;53.516;10.478;2023-09-07T16:44:10;2.95;;;2.17;;
18649;SDS011;9454;53.516;10.478;2023-09-07T16:47:19;8.98;;;2.50;;
18649;SDS011;9454;53.516;10.478;2023-09-07T16:50:27;3.60;;;2.05;;
18649;SDS011;9454;53.516;10.478;2023-09-07T16:53:35;3.97;;;2.10;;
18649;SDS011;9454;53.516;10.478;2023-09-07T16:56:39;5.88;;;2.63;;
18649;SDS011;9454;53.516;10.478;2023-09-07T16:59:50;5.53;;;2.20;;
18649;SDS011;9454;53.516;10.478;2023-09-07T17:03:00;3.08;;;1.98;;
18649;SDS011;9454;53.516;10.478;2023-09-07T17:06:04;3.95;;;2.08;;
18649;SDS011;9454;53.516;10.478;2023-09-07T17:09:07;2.67;;;1.83;;
18649;SDS011;9454;53.516;10.478;2023-09-07T17:12:11;5.30;;;2.25;;
18649;SDS011;9454;53.516;10.478;2023-09-07T17:15:18;3.83;;;2.10;;
18649;SDS011;9454;53.516;10.478;2023-09-07T17:18:31;4.10;;;2.42;;
18649;SDS011;9454;53.516;10.478;2023-09-07T17:21:36;5.15;;;2.33;;
18649;SDS011;9454;53.516;10.478;2023-09-07T17:24:42;3.20;;;2.20;;
18649;SDS011;9454;53.516;10.478;2023-09-07T17:27:46;2.95;;;1.98;;
18649;SDS011;9454;53.516;10.478;2023-09-07T17:30:54;4.22;;;2.65;;
18649;SDS011;9454;53.516;10.478;2023-09-07T17:33:59;4.70;;;2.08;;
18649;SDS011;9454;53.516;10.478;2023-09-07T17:37:03;5.13;;;2.33;;
18649;SDS011;9454;53.516;10.478;2023-09-07T17:40:08;6.63;;;2.75;;
18649;SDS011;9454;53.516;10.478;2023-09-07T17:43:12;6.80;;;2.58;;
18649;SDS011;9454;53.516;10.478;2023-09-07T17:46:15;3.80;;;2.55;;
18649;SDS011;9454;53.516;10.478;2023-09-07T17:49:21;3.15;;;2.15;;
18649;SDS011;9454;53.516;10.478;2023-09-07T17:52:24;3.67;;;2.63;;
18649;SDS011;9454;53.516;10.478;2023-09-07T17:55:28;3.13;;;2.17;;
18649;SDS011;9454;53.516;10.478;2023-09-07T17:58:31;4.47;;;2.65;;
18649;SDS011;9454;53.516;10.478;2023-09-07T18:01:35;5.65;;;3.00;;
18649;SDS011;9454;53.516;10.478;2023-09-07T18:04:40;6.75;;;3.42;;
18649;SDS011;9454;53.516;10.478;2023-09-07T18:07:44;8.35;;;4.45;;
18649;SDS011;9454;53.516;10.478;2023-09-07T18:10:50;8.30;;;4.72;;
18649;SDS011;9454;53.516;10.478;2023-09-07T18:13:57;9.65;;;4.38;;
18649;SDS011;9454;53.516;10.478;2023-09-07T18:17:13;5.35;;;3.25;;
18649;SDS011;9454;53.516;10.478;2023-09-07T18:20:18;6.63;;;4.40;;
18649;SDS011;9454;53.516;10.478;2023-09-07T18:23:22;8.98;;;4.38;;
18649;SDS011;9454;53.516;10.478;2023-09-07T18:26:28;4.75;;;3.28;;
18649;SDS011;9454;53.516;10.478;2023-09-07T18:29:33;10.80;;;3.03;;
18649;SDS011;9454;53.516;10.478;2023-09-07T18:32:37;7.35;;;3.70;;
18649;SDS011;9454;53.516;10.478;2023-09-07T18:35:43;7.55;;;3.53;;
18649;SDS011;9454;53.516;10.478;2023-09-07T18:38:47;5.65;;;3.20;;
18649;SDS011;9454;53.516;10.478;2023-09-07T18:41:51;6.55;;;3.22;;
18649;SDS011;9454;53.516;10.478;2023-09-07T18:44:55;5.35;;;3.03;;
18649;SDS011;9454;53.516;10.478;2023-09-07T18:48:00;7.75;;;3.10;;
18649;SDS011;9454;53.516;10.478;2023-09-07T18:51:06;9.98;;;3.42;;
18649;SDS011;9454;53.516;10.478;2023-09-07T18:54:09;6.47;;;3.13;;
18649;SDS011;9454;53.516;10.478;2023-09-07T18:57:13;3.50;;;2.63;;
18649;SDS011;9454;53.516;10.478;2023-09-07T19:00:16;5.35;;;2.55;;